sensor_id;sensor_type;location;lat;lon;timestamp;pressure;altitude;pressure_sealevel;temperature;humidity
13690;BME280;6917;52.194;9.894;2023-02-20T00:00:31;101122.13;;;5.40;100.00
13690;BME280;6917;52.194;9.894;2023-02-20T00:02:57;101118.59;;;5.39;100.00
13690;BME280;6917;52.194;9.894;2023-02-20T00:05:23;101109.66;;;5.38;100.00
13690;BME280;6917;52.194;9.894;2023-02-20T00:07:48;101105.03;;;5.39;100.00
13690;BME280;6917;52.194;9.894;2023-02-20T00:10:14;101116.69;;;5.40;100.00
13690;BME280;6917;52.194;9.894;2023-02-20T00:12:40;101111.81;;;5.42;100.00
13690;BME280;6917;52.194;9.894;2023-02-20T00:15:05;101113.19;;;5.44;100.00
13690;BME280;6917;52.194;9.894;2023-02-20T00:17:31;101119.72;;;5.48;100.00
13690;BME280;6917;52.194;9.894;2023-02-20T00:19:56;101124.63;;;5.51;100.00
13690;BME280;6917;52.194;9.894;2023-02-20T00:22:22;101110.56;;;5.54;100.00
13690;BME280;6917;52.194;9.894;2023-02-20T00:24:48;101103.25;;;5.55;100.00
13690;BME280;6917;52.194;9.894;2023-02-20T00:27:14;101110.28;;;5.56;100.00
13690;BME280;6917;52.194;9.894;2023-02-20T00:29:39;101101.91;;;5.57;100.00
13690;BME280;6917;52.194;9.894;2023-02-20T00:32:04;101100.56;;;5.60;100.00
13690;BME280;6917;52.194;9.894;2023-02-20T00:34:30;101106.53;;;5.62;100.00
13690;BME280;6917;52.194;9.894;2023-02-20T00:36:55;101095.13;;;5.60;100.00
13690;BME280;6917;52.194;9.894;2023-02-20T00:39:21;101096.75;;;5.61;100.00
13690;BME280;6917;52.194;9.894;2023-02-20T00:41:46;101100.28;;;5.61;100.00
13690;BME280;6917;52.194;9.894;2023-02-20T00:44:11;101084.84;;;5.62;100.00
13690;BME280;6917;52.194;9.894;2023-02-20T00:46:36;101096.81;;;5.66;100.00
13690;BME280;6917;52.194;9.894;2023-02-20T00:49:02;101087.34;;;5.68;100.00
13690;BME280;6917;52.194;9.894;2023-02-20T00:51:28;101090.84;;;5.69;100.00
13690;BME280;6917;52.194;9.894;2023-02-20T00:53:53;101079.47;;;5.67;100.00
13690;BME280;6917;52.194;9.894;2023-02-20T00:56:18;101083.00;;;5.67;100.00
13690;BME280;6917;52.194;9.894;2023-02-20T00:58:44;101067.81;;;5.66;100.00
13690;BME280;6917;52.194;9.894;2023-02-20T01:01:09;101075.13;;;5.66;100.00
13690;BME280;6917;52.194;9.894;2023-02-20T01:03:34;101079.75;;;5.65;100.00
13690;BME280;6917;52.194;9.894;2023-02-20T01:06:00;101069.97;;;5.64;100.00
13690;BME280;6917;52.194;9.894;2023-02-20T01:08:28;101078.09;;;5.64;100.00
13690;BME280;6917;52.194;9.894;2023-02-20T01:10:53;101070.78;;;5.65;100.00
13690;BME280;6917;52.194;9.894;2023-02-20T01:13:18;101072.41;;;5.66;100.00
13690;BME280;6917;52.194;9.894;2023-02-20T01:15:44;101072.41;;;5.66;100.00
13690;BME280;6917;52.194;9.894;2023-02-20T01:18:09;101077.84;;;5.66;100.00
13690;BME280;6917;52.194;9.894;2023-02-20T01:20:35;101067.50;;;5.63;100.00
13690;BME280;6917;52.194;9.894;2023-02-20T01:23:00;101078.34;;;5.63;100.00
13690;BME280;6917;52.194;9.894;2023-02-20T01:25:26;101076.22;;;5.65;100.00
13690;BME280;6917;52.194;9.894;2023-02-20T01:27:51;101069.41;;;5.62;100.00
13690;BME280;6917;52.194;9.894;2023-02-20T01:30:16;101079.41;;;5.62;100.00
13690;BME280;6917;52.194;9.894;2023-02-20T01:32:42;101067.75;;;5.61;100.00
13690;BME280;6917;52.194;9.894;2023-02-20T01:35:07;101062.91;;;5.63;100.00
13690;BME280;6917;52.194;9.894;2023-02-20T01:37:33;101055.84;;;5.62;100.00
13690;BME280;6917;52.194;9.894;2023-02-20T01:39:59;101036.59;;;5.59;100.00
13690;BME280;6917;52.194;9.894;2023-02-20T01:42:27;101024.13;;;5.58;100.00
13690;BME280;6917;52.194;9.894;2023-02-20T01:44:53;101018.69;;;5.58;100.00
13690;BME280;6917;52.194;9.894;2023-02-20T01:47:21;101009.75;;;5.57;100.00
13690;BME280;6917;52.194;9.894;2023-02-20T01:49:58;101008.38;;;5.55;100.00
13690;BME280;6917;52.194;9.894;2023-02-20T01:52:30;100997.56;;;5.55;100.00
13690;BME280;6917;52.194;9.894;2023-02-20T01:55:19;101002.69;;;5.51;100.00
13690;BME280;6917;52.194;9.894;2023-02-20T01:57:52;101010.56;;;5.53;100.00
13690;BME280;6917;52.194;9.894;2023-02-20T02:00:20;100999.72;;;5.53;100.00
13690;BME280;6917;52.194;9.894;2023-02-20T02:02:56;101001.59;;;5.52;100.00
13690;BME280;6917;52.194;9.894;2023-02-20T02:05:23;100992.13;;;5.50;100.00
13690;BME280;6917;52.194;9.894;2023-02-20T02:07:49;100982.31;;;5.49;100.00
13690;BME280;6917;52.194;9.894;2023-02-20T02:10:18;100973.38;;;5.48;100.00
13690;BME280;6917;52.194;9.894;2023-02-20T02:12:50;100973.91;;;5.45;100.00
13690;BME280;6917;52.194;9.894;2023-02-20T02:15:19;100968.22;;;5.42;100.00
13690;BME280;6917;52.194;9.894;2023-02-20T02:18:07;100960.34;;;5.40;100.00
13690;BME280;6917;52.194;9.894;2023-02-20T02:26:21;100943.78;;;5.31;100.00
13690;BME280;6917;52.194;9.894;2023-02-20T02:29:32;100935.66;;;5.31;100.00
13690;BME280;6917;52.194;9.894;2023-02-20T02:40:33;100938.28;;;5.16;100.00
13690;BME280;6917;52.194;9.894;2023-02-20T02:43:12;100934.22;;;5.14;100.00
13690;BME280;6917;52.194;9.894;2023-02-20T02:50:42;100900.31;;;5.06;100.00
13690;BME280;6917;52.194;9.894;2023-02-20T02:53:11;100898.13;;;5.03;100.00
13690;BME280;6917;52.194;9.894;2023-02-20T02:55:37;100893.00;;;5.01;100.00
13690;BME280;6917;52.194;9.894;2023-02-20T02:58:04;100897.84;;;4.99;100.00
13690;BME280;6917;52.194;9.894;2023-02-20T03:00:58;100884.59;;;5.03;100.00
13690;BME280;6917;52.194;9.894;2023-02-20T03:03:29;100882.44;;;5.05;100.00
13690;BME280;6917;52.194;9.894;2023-02-20T03:05:59;100886.22;;;5.04;100.00
13690;BME280;6917;52.194;9.894;2023-02-20T03:13:31;100874.38;;;5.20;100.00
13690;BME280;6917;52.194;9.894;2023-02-20T03:16:18;100867.66;;;5.28;100.00
13690;BME280;6917;52.194;9.894;2023-02-20T03:18:47;100865.75;;;5.28;100.00
13690;BME280;6917;52.194;9.894;2023-02-20T03:21:16;100865.22;;;5.31;100.00
13690;BME280;6917;52.194;9.894;2023-02-20T03:23:46;100880.94;;;5.34;100.00
13690;BME280;6917;52.194;9.894;2023-02-20T03:26:17;100871.75;;;5.35;100.00
13690;BME280;6917;52.194;9.894;2023-02-20T03:28:50;100880.44;;;5.37;100.00
13690;BME280;6917;52.194;9.894;2023-02-20T03:31:27;100863.34;;;5.37;100.00
13690;BME280;6917;52.194;9.894;2023-02-20T03:34:03;100879.06;;;5.40;100.00
13690;BME280;6917;52.194;9.894;2023-02-20T03:39:50;100885.03;;;5.37;100.00
13690;BME280;6917;52.194;9.894;2023-02-20T03:42:39;100876.09;;;5.36;100.00
13690;BME280;6917;52.194;9.894;2023-02-20T03:45:25;100859.25;;;5.34;100.00
13690;BME280;6917;52.194;9.894;2023-02-20T03:47:56;100852.78;;;5.35;100.00
13690;BME280;6917;52.194;9.894;2023-02-20T03:50:24;100850.09;;;5.35;100.00
13690;BME280;6917;52.194;9.894;2023-02-20T03:53:07;100845.19;;;5.37;100.00
13690;BME280;6917;52.194;9.894;2023-02-20T03:55:33;100850.34;;;5.44;100.00
13690;BME280;6917;52.194;9.894;2023-02-20T03:58:02;100830.03;;;5.47;100.00
13690;BME280;6917;52.194;9.894;2023-02-20T04:00:31;100850.94;;;5.51;100.00
13690;BME280;6917;52.194;9.894;2023-02-20T04:03:01;100847.69;;;5.54;100.00
13690;BME280;6917;52.194;9.894;2023-02-20T04:05:33;100840.38;;;5.60;100.00
13690;BME280;6917;52.194;9.894;2023-02-20T04:08:17;100843.09;;;5.65;100.00
13690;BME280;6917;52.194;9.894;2023-02-20T04:10:50;100833.31;;;5.64;100.00
13690;BME280;6917;52.194;9.894;2023-02-20T04:13:16;100833.31;;;5.64;100.00
13690;BME280;6917;52.194;9.894;2023-02-20T04:15:43;100829.28;;;5.66;100.00
13690;BME280;6917;52.194;9.894;2023-02-20T04:18:11;100821.97;;;5.67;100.00
13690;BME280;6917;52.194;9.894;2023-02-20T04:20:37;100831.16;;;5.76;100.00
13690;BME280;6917;52.194;9.894;2023-02-20T04:23:12;100808.94;;;5.74;100.00
13690;BME280;6917;52.194;9.894;2023-02-20T04:25:46;100825.22;;;5.79;100.00
13690;BME280;6917;52.194;9.894;2023-02-20T04:28:13;100818.44;;;5.82;100.00
13690;BME280;6917;52.194;9.894;2023-02-20T04:30:39;100807.59;;;5.87;100.00
13690;BME280;6917;52.194;9.894;2023-02-20T04:33:04;100810.03;;;5.88;100.00
13690;BME280;6917;52.194;9.894;2023-02-20T04:35:30;100812.22;;;5.91;100.00
13690;BME280;6917;52.194;9.894;2023-02-20T04:37:55;100784.03;;;5.92;100.00
13690;BME280;6917;52.194;9.894;2023-02-20T04:40:22;100788.09;;;5.95;100.00
13690;BME280;6917;52.194;9.894;2023-02-20T04:42:48;100770.19;;;5.99;100.00
13690;BME280;6917;52.194;9.894;2023-02-20T04:45:16;100758.53;;;5.99;100.00
13690;BME280;6917;52.194;9.894;2023-02-20T04:47:42;100741.47;;;5.98;100.00
13690;BME280;6917;52.194;9.894;2023-02-20T04:50:18;100737.41;;;5.95;100.00
13690;BME280;6917;52.194;9.894;2023-02-20T04:52:44;100718.13;;;5.97;100.00
13690;BME280;6917;52.194;9.894;2023-02-20T04:55:09;100695.91;;;5.95;100.00
13690;BME280;6917;52.194;9.894;2023-02-20T04:57:35;100704.56;;;5.97;100.00
13690;BME280;6917;52.194;9.894;2023-02-20T05:00:00;100714.31;;;6.03;98.12
13690;BME280;6917;52.194;9.894;2023-02-20T05:02:26;100726.78;;;6.04;99.56
13690;BME280;6917;52.194;9.894;2023-02-20T05:04:51;100714.84;;;6.10;100.00
13690;BME280;6917;52.194;9.894;2023-02-20T05:07:17;100742.25;;;6.14;100.00
13690;BME280;6917;52.194;9.894;2023-02-20T05:09:42;100729.22;;;6.16;100.00
13690;BME280;6917;52.194;9.894;2023-02-20T05:12:08;100730.03;;;6.16;100.00
13690;BME280;6917;52.194;9.894;2023-02-20T05:14:34;100718.63;;;6.19;100.00
13690;BME280;6917;52.194;9.894;2023-02-20T05:16:59;100730.28;;;6.25;100.00
13690;BME280;6917;52.194;9.894;2023-02-20T05:19:25;100746.56;;;6.25;100.00
13690;BME280;6917;52.194;9.894;2023-02-20T05:21:50;100743.31;;;6.23;100.00
13690;BME280;6917;52.194;9.894;2023-02-20T05:24:33;100740.31;;;6.24;100.00
13690;BME280;6917;52.194;9.894;2023-02-20T05:26:59;100738.97;;;6.27;100.00
13690;BME280;6917;52.194;9.894;2023-02-20T05:29:24;100734.88;;;6.30;100.00
13690;BME280;6917;52.194;9.894;2023-02-20T05:31:50;100730.25;;;6.30;99.96
13690;BME280;6917;52.194;9.894;2023-02-20T05:34:15;100736.50;;;6.31;100.00
13690;BME280;6917;52.194;9.894;2023-02-20T05:36:40;100740.56;;;6.33;99.74
13690;BME280;6917;52.194;9.894;2023-02-20T05:39:06;100736.22;;;6.32;99.69
13690;BME280;6917;52.194;9.894;2023-02-20T05:41:31;100732.41;;;6.33;99.41
13690;BME280;6917;52.194;9.894;2023-02-20T05:43:57;100721.84;;;6.32;99.87
13690;BME280;6917;52.194;9.894;2023-02-20T05:46:24;100720.47;;;6.34;100.00
13690;BME280;6917;52.194;9.894;2023-02-20T05:48:50;100706.38;;;6.32;99.86
13690;BME280;6917;52.194;9.894;2023-02-20T05:51:23;100712.34;;;6.34;99.38
13690;BME280;6917;52.194;9.894;2023-02-20T05:53:48;100697.97;;;6.34;99.10
13690;BME280;6917;52.194;9.894;2023-02-20T05:56:14;100698.25;;;6.37;98.99
13690;BME280;6917;52.194;9.894;2023-02-20T05:58:41;100690.63;;;6.39;98.75
13690;BME280;6917;52.194;9.894;2023-02-20T06:01:08;100687.34;;;6.42;97.96
13690;BME280;6917;52.194;9.894;2023-02-20T06:03:33;100677.59;;;6.41;98.06
13690;BME280;6917;52.194;9.894;2023-02-20T06:05:58;100701.44;;;6.44;97.63
13690;BME280;6917;52.194;9.894;2023-02-20T06:08:24;100690.31;;;6.51;97.05
13690;BME280;6917;52.194;9.894;2023-02-20T06:10:49;100695.47;;;6.52;96.37
13690;BME280;6917;52.194;9.894;2023-02-20T06:13:14;100697.09;;;6.53;96.05
13690;BME280;6917;52.194;9.894;2023-02-20T06:15:40;100698.66;;;6.60;95.63
13690;BME280;6917;52.194;9.894;2023-02-20T06:18:05;100679.38;;;6.66;94.83
13690;BME280;6917;52.194;9.894;2023-02-20T06:20:30;100675.00;;;6.65;94.28
13690;BME280;6917;52.194;9.894;2023-02-20T06:22:56;100664.72;;;6.67;94.15
13690;BME280;6917;52.194;9.894;2023-02-20T06:25:21;100674.47;;;6.68;93.88
13690;BME280;6917;52.194;9.894;2023-02-20T06:27:46;100660.09;;;6.68;94.17
13690;BME280;6917;52.194;9.894;2023-02-20T06:30:12;100659.53;;;6.71;93.76
13690;BME280;6917;52.194;9.894;2023-02-20T06:32:37;100652.97;;;6.77;93.73
13690;BME280;6917;52.194;9.894;2023-02-20T06:35:03;100665.72;;;6.76;93.62
13690;BME280;6917;52.194;9.894;2023-02-20T06:37:29;100671.16;;;6.76;93.38
13690;BME280;6917;52.194;9.894;2023-02-20T06:39:54;100671.69;;;6.78;93.58
13690;BME280;6917;52.194;9.894;2023-02-20T06:42:19;100662.19;;;6.81;93.18
13690;BME280;6917;52.194;9.894;2023-02-20T06:44:45;100656.47;;;6.82;93.16
13690;BME280;6917;52.194;9.894;2023-02-20T06:47:10;100669.78;;;6.84;92.88
13690;BME280;6917;52.194;9.894;2023-02-20T06:49:36;100648.00;;;6.89;92.60
13690;BME280;6917;52.194;9.894;2023-02-20T06:52:03;100657.19;;;6.93;92.34
13690;BME280;6917;52.194;9.894;2023-02-20T06:54:29;100658.81;;;6.94;91.95
13690;BME280;6917;52.194;9.894;2023-02-20T06:56:54;100664.53;;;6.93;92.55
13690;BME280;6917;52.194;9.894;2023-02-20T06:59:21;100656.09;;;6.94;92.41
13690;BME280;6917;52.194;9.894;2023-02-20T07:01:46;100645.22;;;6.99;92.40
13690;BME280;6917;52.194;9.894;2023-02-20T07:04:18;100650.38;;;7.01;92.17
13690;BME280;6917;52.194;9.894;2023-02-20T07:06:44;100662.91;;;6.97;92.22
13690;BME280;6917;52.194;9.894;2023-02-20T07:09:09;100661.00;;;6.97;92.28
13690;BME280;6917;52.194;9.894;2023-02-20T07:11:35;100664.00;;;6.96;91.79
13690;BME280;6917;52.194;9.894;2023-02-20T07:14:00;100665.09;;;6.95;91.89
13690;BME280;6917;52.194;9.894;2023-02-20T07:16:25;100674.59;;;6.97;92.45
13690;BME280;6917;52.194;9.894;2023-02-20T07:18:51;100663.19;;;6.95;92.37
13690;BME280;6917;52.194;9.894;2023-02-20T07:21:16;100674.88;;;6.96;92.43
13690;BME280;6917;52.194;9.894;2023-02-20T07:23:43;100689.78;;;6.93;92.17
13690;BME280;6917;52.194;9.894;2023-02-20T07:26:19;100683.84;;;6.91;92.63
13690;BME280;6917;52.194;9.894;2023-02-20T07:28:45;100665.91;;;6.95;92.38
13690;BME280;6917;52.194;9.894;2023-02-20T07:31:10;100674.88;;;6.96;92.90
13690;BME280;6917;52.194;9.894;2023-02-20T07:33:36;100675.13;;;6.94;92.65
13690;BME280;6917;52.194;9.894;2023-02-20T07:36:02;100660.47;;;6.95;92.65
13690;BME280;6917;52.194;9.894;2023-02-20T07:38:27;100660.47;;;6.95;92.74
13690;BME280;6917;52.194;9.894;2023-02-20T07:40:52;100642.53;;;6.94;92.83
13690;BME280;6917;52.194;9.894;2023-02-20T07:43:18;100649.03;;;6.98;92.57
13690;BME280;6917;52.194;9.894;2023-02-20T07:45:43;100633.84;;;6.97;92.79
13690;BME280;6917;52.194;9.894;2023-02-20T07:48:08;100649.31;;;6.97;91.93
13690;BME280;6917;52.194;9.894;2023-02-20T07:50:33;100646.91;;;6.95;92.67
13690;BME280;6917;52.194;9.894;2023-02-20T07:52:59;100651.22;;;6.96;92.30
13690;BME280;6917;52.194;9.894;2023-02-20T07:55:24;100649.31;;;6.97;92.14
13690;BME280;6917;52.194;9.894;2023-02-20T07:57:49;100635.75;;;6.97;91.97
13690;BME280;6917;52.194;9.894;2023-02-20T08:00:20;100643.91;;;6.97;92.01
13690;BME280;6917;52.194;9.894;2023-02-20T08:02:45;100639.00;;;6.99;91.53
13690;BME280;6917;52.194;9.894;2023-02-20T08:05:11;100638.41;;;7.02;91.76
13690;BME280;6917;52.194;9.894;2023-02-20T08:07:37;100645.75;;;7.01;91.39
13690;BME280;6917;52.194;9.894;2023-02-20T08:10:04;100640.03;;;7.03;91.81
13690;BME280;6917;52.194;9.894;2023-02-20T08:12:29;100635.97;;;7.00;91.77
13690;BME280;6917;52.194;9.894;2023-02-20T08:14:55;100631.66;;;6.99;91.65
13690;BME280;6917;52.194;9.894;2023-02-20T08:17:20;100631.66;;;6.99;92.73
13690;BME280;6917;52.194;9.894;2023-02-20T08:19:45;100623.50;;;6.99;92.49
13690;BME280;6917;52.194;9.894;2023-02-20T08:22:11;100616.44;;;6.98;93.02
13690;BME280;6917;52.194;9.894;2023-02-20T08:24:36;100618.31;;;7.03;92.63
13690;BME280;6917;52.194;9.894;2023-02-20T08:27:02;100638.94;;;7.04;92.00
13690;BME280;6917;52.194;9.894;2023-02-20T08:29:27;100633.25;;;7.00;92.50
13690;BME280;6917;52.194;9.894;2023-02-20T08:31:53;100622.41;;;7.00;93.08
13690;BME280;6917;52.194;9.894;2023-02-20T08:34:18;100622.16;;;6.97;93.21
13690;BME280;6917;52.194;9.894;2023-02-20T08:36:44;100610.78;;;6.95;94.32
13690;BME280;6917;52.194;9.894;2023-02-20T08:39:09;100613.75;;;6.93;94.46
13690;BME280;6917;52.194;9.894;2023-02-20T08:41:40;100608.59;;;6.92;93.92
13690;BME280;6917;52.194;9.894;2023-02-20T08:44:06;100607.22;;;6.94;93.36
13690;BME280;6917;52.194;9.894;2023-02-20T08:46:32;100602.34;;;6.96;93.12
13690;BME280;6917;52.194;9.894;2023-02-20T08:48:57;100588.22;;;6.94;93.64
13690;BME280;6917;52.194;9.894;2023-02-20T08:51:22;100596.63;;;6.93;93.80
13690;BME280;6917;52.194;9.894;2023-02-20T08:53:48;100608.06;;;6.95;94.31
13690;BME280;6917;52.194;9.894;2023-02-20T08:56:17;100603.38;;;7.00;95.06
13690;BME280;6917;52.194;9.894;2023-02-20T08:58:43;100607.44;;;7.03;94.85
13690;BME280;6917;52.194;9.894;2023-02-20T09:01:08;100614.78;;;7.02;94.39
13690;BME280;6917;52.194;9.894;2023-02-20T09:03:33;100595.25;;;7.00;94.44
13690;BME280;6917;52.194;9.894;2023-02-20T09:06:03;100606.06;;;7.05;94.18
13690;BME280;6917;52.194;9.894;2023-02-20T09:08:28;100578.38;;;7.03;94.60
13690;BME280;6917;52.194;9.894;2023-02-20T09:10:54;100593.03;;;7.02;94.15
13690;BME280;6917;52.194;9.894;2023-02-20T09:13:19;100603.34;;;7.05;94.42
13690;BME280;6917;52.194;9.894;2023-02-20T09:15:44;100594.63;;;7.08;94.30
13690;BME280;6917;52.194;9.894;2023-02-20T09:18:12;100584.00;;;7.12;93.81
13690;BME280;6917;52.194;9.894;2023-02-20T09:20:38;100600.53;;;7.15;94.21
13690;BME280;6917;52.194;9.894;2023-02-20T09:23:04;100593.16;;;7.21;94.54
13690;BME280;6917;52.194;9.894;2023-02-20T09:25:30;100585.81;;;7.22;93.69
13690;BME280;6917;52.194;9.894;2023-02-20T09:27:56;100587.44;;;7.23;94.40
13690;BME280;6917;52.194;9.894;2023-02-20T09:30:21;100579.28;;;7.23;94.38
13690;BME280;6917;52.194;9.894;2023-02-20T09:32:47;100572.78;;;7.24;94.44
13690;BME280;6917;52.194;9.894;2023-02-20T09:35:17;100579.03;;;7.24;94.22
13690;BME280;6917;52.194;9.894;2023-02-20T09:37:43;100575.50;;;7.24;94.55
13690;BME280;6917;52.194;9.894;2023-02-20T09:40:10;100562.44;;;7.26;94.58
13690;BME280;6917;52.194;9.894;2023-02-20T09:45:32;100562.88;;;7.33;95.31
13690;BME280;6917;52.194;9.894;2023-02-20T09:48:29;100569.13;;;7.33;95.62
13690;BME280;6917;52.194;9.894;2023-02-20T09:51:02;100588.44;;;7.32;96.02
13690;BME280;6917;52.194;9.894;2023-02-20T09:53:36;100590.94;;;7.28;95.92
13690;BME280;6917;52.194;9.894;2023-02-20T09:56:04;100561.56;;;7.30;96.50
13690;BME280;6917;52.194;9.894;2023-02-20T09:58:43;100553.91;;;7.32;96.70
13690;BME280;6917;52.194;9.894;2023-02-20T10:01:13;100576.19;;;7.34;96.91
13690;BME280;6917;52.194;9.894;2023-02-20T10:06:24;100563.66;;;7.38;97.92
13690;BME280;6917;52.194;9.894;2023-02-20T10:08:51;100556.88;;;7.36;98.37
13690;BME280;6917;52.194;9.894;2023-02-20T10:11:25;100562.38;;;7.31;98.24
13690;BME280;6917;52.194;9.894;2023-02-20T10:14:17;100563.22;;;7.26;99.00
13690;BME280;6917;52.194;9.894;2023-02-20T10:22:04;100563.56;;;7.20;99.80
13690;BME280;6917;52.194;9.894;2023-02-20T10:24:56;100558.94;;;7.20;100.00
13690;BME280;6917;52.194;9.894;2023-02-20T10:27:40;100556.22;;;7.20;100.00
13690;BME280;6917;52.194;9.894;2023-02-20T10:30:11;100552.22;;;7.12;100.00
13690;BME280;6917;52.194;9.894;2023-02-20T10:32:51;100540.78;;;7.15;100.00
13690;BME280;6917;52.194;9.894;2023-02-20T10:35:24;100548.94;;;7.15;100.00
13690;BME280;6917;52.194;9.894;2023-02-20T10:37:54;100551.63;;;7.15;100.00
13690;BME280;6917;52.194;9.894;2023-02-20T10:45:23;100580.66;;;7.20;100.00
13690;BME280;6917;52.194;9.894;2023-02-20T10:48:12;100547.25;;;7.20;100.00
13690;BME280;6917;52.194;9.894;2023-02-20T10:53:22;100558.91;;;7.25;100.00
13690;BME280;6917;52.194;9.894;2023-02-20T10:56:02;100558.34;;;7.23;100.00
13690;BME280;6917;52.194;9.894;2023-02-20T10:58:32;100564.63;;;7.24;100.00
13690;BME280;6917;52.194;9.894;2023-02-20T11:01:06;100549.69;;;7.21;100.00
13690;BME280;6917;52.194;9.894;2023-02-20T11:03:40;100546.44;;;7.19;100.00
13690;BME280;6917;52.194;9.894;2023-02-20T11:06:11;100560.31;;;7.18;100.00
13690;BME280;6917;52.194;9.894;2023-02-20T11:08:37;100575.53;;;7.19;100.00
13690;BME280;6917;52.194;9.894;2023-02-20T11:11:21;100555.41;;;7.20;100.00
13690;BME280;6917;52.194;9.894;2023-02-20T11:13:47;100564.06;;;7.22;100.00
13690;BME280;6917;52.194;9.894;2023-02-20T11:16:22;100562.44;;;7.21;100.00
13690;BME280;6917;52.194;9.894;2023-02-20T11:19:02;100556.47;;;7.24;100.00
13690;BME280;6917;52.194;9.894;2023-02-20T11:21:41;100568.66;;;7.26;100.00
13690;BME280;6917;52.194;9.894;2023-02-20T11:26:55;100572.72;;;7.29;100.00
13690;BME280;6917;52.194;9.894;2023-02-20T11:29:22;100562.13;;;7.27;100.00
13690;BME280;6917;52.194;9.894;2023-02-20T11:31:48;100564.03;;;7.27;100.00
13690;BME280;6917;52.194;9.894;2023-02-20T11:34:17;100582.28;;;7.21;100.00
13690;BME280;6917;52.194;9.894;2023-02-20T11:36:52;100578.22;;;7.19;100.00
13690;BME280;6917;52.194;9.894;2023-02-20T11:39:27;100569.09;;;7.09;100.00
13690;BME280;6917;52.194;9.894;2023-02-20T11:42:06;100572.34;;;7.06;100.00
13690;BME280;6917;52.194;9.894;2023-02-20T11:44:35;100575.41;;;7.00;100.00
13690;BME280;6917;52.194;9.894;2023-02-20T11:47:19;100561.31;;;6.98;100.00
13690;BME280;6917;52.194;9.894;2023-02-20T11:49:49;100568.66;;;6.97;100.00
13690;BME280;6917;52.194;9.894;2023-02-20T11:52:31;100563.22;;;6.97;100.00
13690;BME280;6917;52.194;9.894;2023-02-20T11:55:21;100561.03;;;6.94;100.00
13690;BME280;6917;52.194;9.894;2023-02-20T11:57:47;100544.22;;;6.92;100.00
13690;BME280;6917;52.194;9.894;2023-02-20T12:00:19;100540.41;;;6.93;100.00
13690;BME280;6917;52.194;9.894;2023-02-20T12:05:15;100542.66;;;6.86;100.00
13690;BME280;6917;52.194;9.894;2023-02-20T12:07:56;100548.09;;;6.86;100.00
13690;BME280;6917;52.194;9.894;2023-02-20T12:10:28;100529.59;;;6.88;100.00
13690;BME280;6917;52.194;9.894;2023-02-20T12:12:57;100538.56;;;6.89;100.00
13690;BME280;6917;52.194;9.894;2023-02-20T12:15:26;100509.50;;;6.89;100.00
13690;BME280;6917;52.194;9.894;2023-02-20T12:18:05;100516.84;;;6.89;100.00
13690;BME280;6917;52.194;9.894;2023-02-20T12:20:36;100518.16;;;6.91;100.00
13690;BME280;6917;52.194;9.894;2023-02-20T12:23:17;100513.03;;;6.90;100.00
13690;BME280;6917;52.194;9.894;2023-02-20T12:28:57;100521.00;;;6.81;100.00
13690;BME280;6917;52.194;9.894;2023-02-20T12:42:27;100521.50;;;6.83;100.00
13690;BME280;6917;52.194;9.894;2023-02-20T12:47:41;100547.28;;;6.85;100.00
13690;BME280;6917;52.194;9.894;2023-02-20T12:50:17;100564.66;;;6.84;100.00
13690;BME280;6917;52.194;9.894;2023-02-20T12:55:31;100537.22;;;6.86;100.00
13690;BME280;6917;52.194;9.894;2023-02-20T13:00:51;100528.50;;;6.89;100.00
13690;BME280;6917;52.194;9.894;2023-02-20T13:03:19;100524.13;;;6.93;100.00
13690;BME280;6917;52.194;9.894;2023-02-20T13:05:50;100512.16;;;6.94;100.00
13690;BME280;6917;52.194;9.894;2023-02-20T13:08:22;100513.53;;;6.97;100.00
13690;BME280;6917;52.194;9.894;2023-02-20T13:10:54;100532.53;;;6.97;100.00
13690;BME280;6917;52.194;9.894;2023-02-20T13:13:21;100527.09;;;6.97;100.00
13690;BME280;6917;52.194;9.894;2023-02-20T13:16:03;100501.84;;;6.96;100.00
13690;BME280;6917;52.194;9.894;2023-02-20T13:21:07;100515.72;;;6.95;100.00
13690;BME280;6917;52.194;9.894;2023-02-20T13:23:36;100516.03;;;6.88;100.00
13690;BME280;6917;52.194;9.894;2023-02-20T13:26:05;100504.66;;;6.86;100.00
13690;BME280;6917;52.194;9.894;2023-02-20T13:28:47;100506.56;;;6.85;100.00
13690;BME280;6917;52.194;9.894;2023-02-20T13:31:14;100501.97;;;6.81;100.00
13690;BME280;6917;52.194;9.894;2023-02-20T13:34:24;100506.03;;;6.83;100.00
13690;BME280;6917;52.194;9.894;2023-02-20T13:55:02;100485.84;;;6.95;100.00
13690;BME280;6917;52.194;9.894;2023-02-20T13:57:30;100476.31;;;6.97;100.00
13690;BME280;6917;52.194;9.894;2023-02-20T13:59:58;100465.38;;;7.02;100.00
13690;BME280;6917;52.194;9.894;2023-02-20T14:02:25;100463.19;;;7.04;100.00
13690;BME280;6917;52.194;9.894;2023-02-20T14:05:00;100446.88;;;7.04;100.00
13690;BME280;6917;52.194;9.894;2023-02-20T14:12:43;100439.16;;;7.16;100.00
13690;BME280;6917;52.194;9.894;2023-02-20T14:15:09;100444.00;;;7.20;100.00
13690;BME280;6917;52.194;9.894;2023-02-20T14:17:35;100448.03;;;7.22;100.00
13690;BME280;6917;52.194;9.894;2023-02-20T14:20:04;100431.69;;;7.27;100.00
13690;BME280;6917;52.194;9.894;2023-02-20T14:22:34;100410.47;;;7.29;100.00
13690;BME280;6917;52.194;9.894;2023-02-20T14:27:38;100443.81;;;7.35;100.00
13690;BME280;6917;52.194;9.894;2023-02-20T14:32:29;100433.44;;;7.42;100.00
13690;BME280;6917;52.194;9.894;2023-02-20T14:37:40;100427.41;;;7.45;100.00
13690;BME280;6917;52.194;9.894;2023-02-20T14:40:12;100439.31;;;7.49;100.00
13690;BME280;6917;52.194;9.894;2023-02-20T14:42:44;100428.13;;;7.51;100.00
13690;BME280;6917;52.194;9.894;2023-02-20T14:45:24;100449.31;;;7.54;100.00
13690;BME280;6917;52.194;9.894;2023-02-20T14:47:57;100416.91;;;7.57;100.00
13690;BME280;6917;52.194;9.894;2023-02-20T14:50:29;100424.28;;;7.57;100.00
13690;BME280;6917;52.194;9.894;2023-02-20T14:53:16;100434.34;;;7.56;100.00
13690;BME280;6917;52.194;9.894;2023-02-20T14:55:42;100434.34;;;7.56;100.00
13690;BME280;6917;52.194;9.894;2023-02-20T14:58:14;100434.63;;;7.55;100.00
13690;BME280;6917;52.194;9.894;2023-02-20T15:00:41;100453.38;;;7.56;100.00
13690;BME280;6917;52.194;9.894;2023-02-20T15:03:20;100443.31;;;7.57;100.00